CPX780 Details

Departure: Incheon International Airport (RKSI)
Arrival: Taiwan Taoyuan International Airport (RCTP)
Route: BOPTA1K BOPTA Z51 BEDES Y711 MUGUS Y742 SALMI Q11 DRAKE DRAKE1B


Current Weather Information
RKSI 232330Z 12008KT 090V150 5000 HZ NSC 21/12 Q1011 NOSIG
RCTP 232330Z 12010KT 9999 FEW020 SCT060 28/23 Q1012 NOSIG RMK A2991